createdAt,value
2023-10-25T00:02:11.464Z,6.40
2023-10-25T00:04:39.453Z,6.30
2023-10-25T00:07:08.914Z,6.40
2023-10-25T00:09:36.993Z,5.70
2023-10-25T00:12:05.466Z,5.60
2023-10-25T00:14:33.512Z,5.90
2023-10-25T00:17:01.503Z,5.90
2023-10-25T00:19:29.560Z,5.30
2023-10-25T00:21:57.676Z,6.10
2023-10-25T00:24:25.731Z,6.60
2023-10-25T00:26:53.881Z,6.30
2023-10-25T00:29:22.070Z,5.80
2023-10-25T00:31:50.807Z,5.20
2023-10-25T00:34:19.120Z,6.20
2023-10-25T00:36:47.120Z,5.80
2023-10-25T00:39:15.273Z,6.60
2023-10-25T00:41:43.557Z,5.90
2023-10-25T00:44:11.623Z,6.60
2023-10-25T00:46:40.153Z,6.40
2023-10-25T00:49:08.864Z,6.60
2023-10-25T00:51:37.333Z,6.00
2023-10-25T00:54:06.368Z,6.10
2023-10-25T00:56:35.049Z,6.10
2023-10-25T00:59:05.502Z,5.50
2023-10-25T01:01:34.646Z,6.50
2023-10-25T01:04:02.987Z,5.50
2023-10-25T01:06:31.110Z,4.80
2023-10-25T01:09:00.460Z,5.20
2023-10-25T01:11:28.696Z,5.20
2023-10-25T01:13:56.721Z,4.70
2023-10-25T01:16:24.767Z,5.10
2023-10-25T01:18:53.057Z,5.60
2023-10-25T01:21:21.204Z,5.50
2023-10-25T01:23:54.352Z,5.40
2023-10-25T01:26:22.753Z,4.60
2023-10-25T01:28:51.356Z,5.80
2023-10-25T01:31:19.558Z,4.80
2023-10-25T01:33:52.559Z,5.20
2023-10-25T01:36:21.100Z,5.50
2023-10-25T01:38:49.627Z,4.60
2023-10-25T01:41:17.635Z,5.40
2023-10-25T01:43:46.170Z,4.80
2023-10-25T01:46:14.291Z,5.00
2023-10-25T01:48:44.497Z,4.80
2023-10-25T01:51:12.993Z,4.40
2023-10-25T01:53:41.087Z,4.90
2023-10-25T01:56:09.124Z,4.20
2023-10-25T01:58:37.306Z,4.30
2023-10-25T02:01:08.071Z,3.10
2023-10-25T02:03:36.448Z,4.50
2023-10-25T02:06:15.315Z,4.60
2023-10-25T02:08:43.723Z,5.70
2023-10-25T02:11:13.761Z,4.60
2023-10-25T02:13:42.242Z,5.00
2023-10-25T02:16:18.275Z,3.80
2023-10-25T02:18:46.448Z,3.70
2023-10-25T02:21:14.753Z,4.20
2023-10-25T02:23:43.760Z,4.40
2023-10-25T02:26:12.208Z,4.60
2023-10-25T02:28:40.271Z,4.50
2023-10-25T02:31:08.517Z,4.30
2023-10-25T02:33:39.202Z,4.30
2023-10-25T02:36:07.891Z,3.70
2023-10-25T02:38:35.838Z,3.90
2023-10-25T02:41:03.895Z,3.90
2023-10-25T02:43:32.094Z,4.50
2023-10-25T02:46:07.077Z,4.60
2023-10-25T02:48:35.158Z,4.90
2023-10-25T02:51:03.322Z,4.90
2023-10-25T02:53:32.039Z,4.10
2023-10-25T02:56:01.774Z,4.30
2023-10-25T02:58:30.036Z,3.70
2023-10-25T03:00:58.198Z,4.20
2023-10-25T03:03:32.116Z,3.90
2023-10-25T03:06:00.696Z,3.60
2023-10-25T03:08:29.083Z,4.20
2023-10-25T03:10:57.477Z,3.80
2023-10-25T03:13:25.798Z,3.70
2023-10-25T03:15:58.970Z,3.90
2023-10-25T03:18:27.032Z,4.10
2023-10-25T03:20:55.127Z,3.40
2023-10-25T03:23:23.154Z,4.10
2023-10-25T03:25:51.149Z,2.80
2023-10-25T03:28:19.361Z,3.60
2023-10-25T03:30:47.749Z,4.30
2023-10-25T03:33:15.930Z,2.90
2023-10-25T03:35:52.265Z,3.90
2023-10-25T03:38:20.593Z,3.00
2023-10-25T03:40:49.414Z,4.00
2023-10-25T03:43:17.526Z,3.50
2023-10-25T03:45:46.110Z,5.10
2023-10-25T03:48:14.311Z,5.70
2023-10-25T03:50:42.948Z,5.80
2023-10-25T03:53:10.911Z,6.00
2023-10-25T03:55:38.909Z,4.90
2023-10-25T03:58:07.017Z,5.40
2023-10-25T04:00:35.036Z,6.00
2023-10-25T04:03:03.224Z,5.40
2023-10-25T04:05:31.582Z,4.10
2023-10-25T04:07:59.536Z,4.40
2023-10-25T04:10:32.408Z,4.40
2023-10-25T04:13:01.977Z,3.00
2023-10-25T04:15:31.787Z,3.20
2023-10-25T04:17:59.813Z,4.10
2023-10-25T04:20:33.267Z,4.10
2023-10-25T04:23:01.381Z,4.60
2023-10-25T04:25:29.563Z,5.20
2023-10-25T04:27:57.692Z,5.00
2023-10-25T04:30:25.695Z,4.80
2023-10-25T04:32:54.046Z,6.30
2023-10-25T04:35:21.974Z,4.70
2023-10-25T04:37:50.115Z,4.60
2023-10-25T04:40:18.200Z,3.90
2023-10-25T04:42:47.695Z,4.80
2023-10-25T04:45:16.169Z,3.70
2023-10-25T04:47:44.371Z,4.20
2023-10-25T04:50:12.827Z,4.20
2023-10-25T04:52:40.882Z,4.00
2023-10-25T04:55:09.502Z,4.60
2023-10-25T04:57:37.562Z,2.80
2023-10-25T05:00:11.230Z,4.40
2023-10-25T05:02:40.132Z,4.50
2023-10-25T05:05:09.151Z,4.60
2023-10-25T05:07:38.648Z,5.20
2023-10-25T05:10:08.908Z,4.40
2023-10-25T05:12:43.854Z,4.60
2023-10-25T05:15:15.208Z,4.90
2023-10-25T05:17:45.921Z,4.40
2023-10-25T05:20:15.883Z,4.30
2023-10-25T05:22:50.928Z,3.80
2023-10-25T05:25:20.306Z,4.30
2023-10-25T05:27:48.866Z,4.80
2023-10-25T05:30:19.149Z,4.40
2023-10-25T05:32:50.463Z,3.70
2023-10-25T05:35:19.143Z,3.50
2023-10-25T05:37:47.471Z,3.90
2023-10-25T05:40:16.064Z,5.00
2023-10-25T05:42:49.152Z,6.80
2023-10-25T05:45:17.628Z,4.20
2023-10-25T05:47:46.291Z,4.30
2023-10-25T05:50:14.807Z,3.80
2023-10-25T05:52:46.625Z,3.90
2023-10-25T05:55:16.351Z,3.80
2023-10-25T05:57:47.669Z,3.80
2023-10-25T06:00:16.795Z,3.40
2023-10-25T06:02:45.794Z,3.40
2023-10-25T06:05:15.240Z,4.40
2023-10-25T06:07:44.676Z,3.90
2023-10-25T06:10:13.533Z,3.80
2023-10-25T06:12:43.134Z,5.00
2023-10-25T06:15:11.720Z,6.00
2023-10-25T06:17:40.312Z,4.90
2023-10-25T06:20:09.108Z,5.70
2023-10-25T06:22:38.547Z,5.70
2023-10-25T06:25:13.194Z,6.50
2023-10-25T06:27:42.078Z,5.50
2023-10-25T06:30:10.724Z,4.30
2023-10-25T06:32:38.790Z,5.00
2023-10-25T06:35:07.669Z,4.30
2023-10-25T06:37:36.911Z,4.60
2023-10-25T06:40:09.065Z,4.90
2023-10-25T06:42:37.782Z,5.80
2023-10-25T06:45:06.901Z,5.10
2023-10-25T06:47:35.623Z,5.00
2023-10-25T06:50:05.143Z,5.20
2023-10-25T06:52:33.791Z,6.00
2023-10-25T06:55:01.999Z,5.30
2023-10-25T06:57:30.549Z,5.50
2023-10-25T06:59:59.444Z,5.80
2023-10-25T07:02:36.772Z,5.80
2023-10-25T07:05:14.323Z,5.10
2023-10-25T07:07:45.419Z,4.60
2023-10-25T07:10:14.427Z,4.70
2023-10-25T07:12:42.667Z,4.80
2023-10-25T07:15:12.667Z,4.90
2023-10-25T07:17:41.286Z,5.20
2023-10-25T07:20:13.840Z,4.40
2023-10-25T07:22:42.709Z,4.60
2023-10-25T07:25:11.553Z,4.40
2023-10-25T07:27:39.633Z,3.80
2023-10-25T07:30:08.348Z,3.50
2023-10-25T07:32:37.433Z,4.90
2023-10-25T07:35:06.090Z,4.20
2023-10-25T07:37:34.508Z,4.40
2023-10-25T07:40:06.830Z,5.00
2023-10-25T07:42:35.124Z,5.00
2023-10-25T07:45:03.423Z,5.00
2023-10-25T07:47:31.567Z,4.50
2023-10-25T07:50:00.101Z,4.40
2023-10-25T07:52:31.148Z,4.20
2023-10-25T07:54:59.204Z,4.60
2023-10-25T07:58:12.438Z,3.90
2023-10-25T08:00:16.530Z,3.20
2023-10-25T08:02:44.823Z,3.90
2023-10-25T08:05:13.073Z,4.40
2023-10-25T08:07:43.212Z,4.10
2023-10-25T08:10:11.576Z,4.50
2023-10-25T08:12:39.601Z,4.40
2023-10-25T08:15:08.248Z,4.90
2023-10-25T08:17:36.383Z,4.80
2023-10-25T08:20:06.327Z,5.40
2023-10-25T08:22:35.354Z,4.30
2023-10-25T08:25:03.799Z,3.20
2023-10-25T08:27:31.896Z,3.00
2023-10-25T08:30:00.044Z,3.20
2023-10-25T08:32:28.571Z,3.30
2023-10-25T08:34:56.921Z,2.90
2023-10-25T08:37:25.066Z,4.10
2023-10-25T08:39:53.431Z,3.60
2023-10-25T08:42:21.598Z,3.70
2023-10-25T08:44:49.987Z,2.90
2023-10-25T08:47:19.765Z,2.80
2023-10-25T08:49:47.931Z,3.60
2023-10-25T08:52:22.766Z,3.70
2023-10-25T08:54:51.215Z,2.90
2023-10-25T08:57:19.989Z,3.30
2023-10-25T08:59:49.419Z,2.90
2023-10-25T09:02:17.535Z,2.50
2023-10-25T09:05:04.084Z,2.70
2023-10-25T09:07:34.467Z,2.70
2023-10-25T09:10:06.855Z,2.50
2023-10-25T09:12:35.019Z,2.20
2023-10-25T09:15:05.027Z,2.30
2023-10-25T09:17:33.088Z,2.10
2023-10-25T09:20:01.586Z,1.40
2023-10-25T09:22:31.464Z,2.20
2023-10-25T09:25:01.967Z,2.20
2023-10-25T09:27:31.855Z,2.50
2023-10-25T09:32:47.019Z,2.10
2023-10-25T09:35:16.135Z,2.60
2023-10-25T09:37:44.141Z,3.10
2023-10-25T09:40:14.955Z,2.60
2023-10-25T09:42:50.093Z,2.50
2023-10-25T09:45:24.674Z,1.80
2023-10-25T09:47:56.637Z,2.40
2023-10-25T09:50:36.312Z,2.00
2023-10-25T09:53:18.646Z,1.80
2023-10-25T09:55:56.142Z,2.30
2023-10-25T09:58:25.600Z,1.70
2023-10-25T10:00:56.784Z,2.40
2023-10-25T10:03:46.158Z,1.50
2023-10-25T10:06:46.957Z,1.50
2023-10-25T10:09:31.771Z,1.60
2023-10-25T10:14:39.956Z,1.40
2023-10-25T10:17:20.381Z,1.10
2023-10-25T10:19:54.410Z,1.40
2023-10-25T10:22:22.437Z,1.10
2023-10-25T10:24:58.466Z,1.40
2023-10-25T10:27:52.956Z,2.30
2023-10-25T10:30:41.883Z,1.30
2023-10-25T10:33:13.103Z,1.20
2023-10-25T10:35:46.398Z,1.40
2023-10-25T10:38:15.057Z,1.20
2023-10-25T10:40:43.541Z,1.50
2023-10-25T10:43:11.793Z,1.20
2023-10-25T10:45:47.692Z,1.80
2023-10-25T10:48:21.446Z,1.90
2023-10-25T10:50:50.865Z,1.00
2023-10-25T10:53:18.940Z,0.80
2023-10-25T10:55:47.377Z,0.80
2023-10-25T10:58:15.484Z,0.80
2023-10-25T11:00:46.773Z,1.00
2023-10-25T11:03:16.222Z,0.90
2023-10-25T11:05:44.659Z,1.00
2023-10-25T11:08:15.057Z,1.00
2023-10-25T11:10:43.563Z,1.20
2023-10-25T11:13:12.163Z,1.20
2023-10-25T11:15:40.598Z,1.20
2023-10-25T11:18:12.366Z,1.30
2023-10-25T11:20:41.904Z,2.10
2023-10-25T11:23:10.308Z,1.30
2023-10-25T11:25:39.313Z,1.20
2023-10-25T11:28:07.476Z,1.10
2023-10-25T11:30:36.975Z,0.80
2023-10-25T11:33:05.755Z,1.00
2023-10-25T11:35:37.244Z,1.00
2023-10-25T11:38:07.527Z,1.00
2023-10-25T11:40:37.035Z,1.30
2023-10-25T11:43:06.962Z,1.40
2023-10-25T11:45:37.654Z,1.30
2023-10-25T11:48:08.138Z,2.20
2023-10-25T11:50:37.239Z,1.40
2023-10-25T11:53:06.050Z,1.60
2023-10-25T11:55:34.184Z,2.10
2023-10-25T11:58:04.405Z,1.20
2023-10-25T12:00:32.448Z,1.20
2023-10-25T12:03:00.877Z,1.00
2023-10-25T12:05:29.472Z,1.10
2023-10-25T12:07:57.680Z,0.90
2023-10-25T12:10:26.576Z,1.10
2023-10-25T12:12:54.525Z,0.90
2023-10-25T12:15:22.616Z,0.90
2023-10-25T12:17:50.666Z,0.90
2023-10-25T12:20:27.626Z,1.00
2023-10-25T12:22:57.751Z,0.90
2023-10-25T12:25:28.269Z,1.40
2023-10-25T12:27:56.303Z,1.10
2023-10-25T12:30:24.458Z,0.90
2023-10-25T12:32:54.657Z,1.00
2023-10-25T12:35:22.789Z,1.00
2023-10-25T12:37:50.844Z,0.90
2023-10-25T12:40:18.963Z,1.00
2023-10-25T12:42:48.868Z,1.00
2023-10-25T12:45:17.141Z,0.90
2023-10-25T12:47:45.348Z,1.00
2023-10-25T12:50:13.723Z,0.90
2023-10-25T12:52:43.064Z,1.60
2023-10-25T12:55:14.306Z,1.60
2023-10-25T12:57:42.582Z,1.60
2023-10-25T13:00:11.175Z,1.40
2023-10-25T13:02:39.245Z,1.90
2023-10-25T13:05:08.078Z,2.20
2023-10-25T13:07:36.178Z,2.20
2023-10-25T13:10:05.657Z,1.90
2023-10-25T13:12:36.744Z,1.60
2023-10-25T13:15:06.278Z,1.10
2023-10-25T13:17:34.487Z,1.10
2023-10-25T13:20:03.855Z,1.00
2023-10-25T13:22:32.527Z,0.90
2023-10-25T13:25:01.230Z,1.00
2023-10-25T13:27:29.591Z,1.50
2023-10-25T13:29:57.887Z,0.80
2023-10-25T13:32:28.278Z,1.70
2023-10-25T13:34:56.960Z,2.00
2023-10-25T13:37:25.542Z,1.70
2023-10-25T13:39:54.443Z,1.70
2023-10-25T13:42:23.731Z,1.10
2023-10-25T13:44:52.112Z,1.70
2023-10-25T13:47:20.186Z,3.00
2023-10-25T13:49:48.210Z,2.70
2023-10-25T13:52:16.675Z,2.60
2023-10-25T13:54:45.419Z,3.00
2023-10-25T13:57:13.730Z,2.70
2023-10-25T13:59:42.766Z,2.50
2023-10-25T14:02:11.753Z,2.90
2023-10-25T14:04:39.956Z,2.60
2023-10-25T14:07:08.102Z,2.00
2023-10-25T14:09:38.126Z,2.20
2023-10-25T14:12:08.178Z,2.50
2023-10-25T14:14:36.349Z,3.50
2023-10-25T14:17:04.661Z,3.00
2023-10-25T14:19:32.731Z,1.50
2023-10-25T14:22:00.850Z,1.20
2023-10-25T14:24:33.832Z,0.90
2023-10-25T14:27:05.381Z,2.00
2023-10-25T14:29:34.100Z,3.20
2023-10-25T14:32:03.641Z,3.60
2023-10-25T14:34:32.318Z,2.80
2023-10-25T14:37:00.715Z,1.80
2023-10-25T14:39:28.742Z,1.00
2023-10-25T14:41:56.785Z,0.80
2023-10-25T14:44:24.929Z,0.80
2023-10-25T14:46:53.023Z,0.90
2023-10-25T14:49:21.061Z,1.10
2023-10-25T14:51:49.052Z,0.80
2023-10-25T14:54:17.212Z,0.90
2023-10-25T14:56:45.192Z,1.20
2023-10-25T14:59:13.190Z,1.40
2023-10-25T15:01:41.205Z,2.30
2023-10-25T15:04:09.385Z,2.20
2023-10-25T15:06:37.674Z,2.90
2023-10-25T15:09:05.797Z,6.40
2023-10-25T15:11:34.234Z,6.10
2023-10-25T15:14:02.419Z,7.00
2023-10-25T15:16:30.417Z,7.80
2023-10-25T15:18:58.380Z,9.20
2023-10-25T15:21:28.955Z,7.20
2023-10-25T15:23:58.133Z,6.40
2023-10-25T15:26:26.270Z,5.40
2023-10-25T15:28:54.289Z,5.20
2023-10-25T15:31:23.274Z,5.70
2023-10-25T15:33:51.830Z,5.20
2023-10-25T15:36:20.871Z,3.90
2023-10-25T15:38:56.396Z,2.70
2023-10-25T15:41:31.913Z,2.00
2023-10-25T15:44:00.360Z,1.60
2023-10-25T15:46:30.458Z,1.60
2023-10-25T15:49:00.391Z,3.70
2023-10-25T15:51:28.646Z,5.50
2023-10-25T15:53:58.045Z,4.20
2023-10-25T15:56:26.646Z,2.30
2023-10-25T15:58:54.844Z,2.00
2023-10-25T16:01:32.615Z,1.70
2023-10-25T16:04:02.156Z,2.40
2023-10-25T16:06:31.584Z,2.40
2023-10-25T16:08:59.723Z,3.50
2023-10-25T16:11:28.551Z,2.80
2023-10-25T16:13:56.616Z,2.30
2023-10-25T16:16:24.675Z,2.00
2023-10-25T16:18:53.018Z,2.60
2023-10-25T16:21:21.129Z,2.00
2023-10-25T16:23:49.361Z,2.60
2023-10-25T16:26:17.969Z,2.30
2023-10-25T16:28:47.614Z,2.40
2023-10-25T16:31:15.729Z,2.90
2023-10-25T16:33:45.236Z,3.30
2023-10-25T16:36:15.521Z,2.70
2023-10-25T16:38:43.952Z,2.70
2023-10-25T16:41:12.583Z,2.40
2023-10-25T16:43:41.220Z,3.40
2023-10-25T16:46:14.642Z,2.40
2023-10-25T16:48:44.002Z,3.30
2023-10-25T16:51:19.685Z,2.50
2023-10-25T16:53:50.219Z,3.60
2023-10-25T16:56:23.586Z,2.80
2023-10-25T16:58:51.795Z,3.00
2023-10-25T17:01:19.899Z,2.00
2023-10-25T17:03:48.314Z,2.30
2023-10-25T17:06:16.899Z,1.90
2023-10-25T17:08:45.578Z,2.80
2023-10-25T17:11:15.865Z,2.80
2023-10-25T17:13:43.889Z,3.20
2023-10-25T17:16:17.069Z,2.40
2023-10-25T17:18:46.080Z,2.10
2023-10-25T17:21:15.046Z,1.50
2023-10-25T17:23:45.827Z,1.60
2023-10-25T17:26:16.986Z,1.50
2023-10-25T17:28:45.920Z,1.20
2023-10-25T17:31:14.144Z,2.00
2023-10-25T17:33:42.275Z,2.70
2023-10-25T17:36:11.192Z,2.50
2023-10-25T17:38:39.229Z,1.90
2023-10-25T17:41:07.799Z,1.90
2023-10-25T17:43:36.055Z,2.10
2023-10-25T17:48:37.357Z,1.90
2023-10-25T17:51:10.310Z,1.80
2023-10-25T17:53:38.999Z,1.90
2023-10-25T17:56:07.667Z,1.50
2023-10-25T17:58:35.847Z,2.20
2023-10-25T18:01:04.871Z,1.60
2023-10-25T18:03:33.034Z,2.00
2023-10-25T18:06:06.020Z,2.00
2023-10-25T18:08:34.195Z,1.80
2023-10-25T18:11:03.082Z,1.70
2023-10-25T18:13:31.240Z,1.60
2023-10-25T18:15:59.923Z,1.60
2023-10-25T18:18:29.341Z,1.70
2023-10-25T18:20:58.963Z,1.50
2023-10-25T18:23:31.155Z,1.90
2023-10-25T18:26:01.384Z,1.60
2023-10-25T18:28:29.468Z,2.40
2023-10-25T18:32:00.548Z,2.20
2023-10-25T18:33:47.902Z,3.20
2023-10-25T18:36:20.796Z,3.10
2023-10-25T18:38:53.985Z,3.00
2023-10-25T18:41:24.570Z,1.90
2023-10-25T18:43:52.590Z,2.40
2023-10-25T18:46:21.052Z,2.00
2023-10-25T18:48:51.968Z,1.40
2023-10-25T18:51:20.008Z,2.60
2023-10-25T18:53:49.614Z,2.30
2023-10-25T18:56:17.554Z,2.60
2023-10-25T18:58:45.576Z,2.60
2023-10-25T19:01:18.694Z,3.00
2023-10-25T19:03:50.842Z,3.20
2023-10-25T19:06:33.582Z,3.30
2023-10-25T19:09:06.752Z,3.10
2023-10-25T19:11:38.518Z,2.80
2023-10-25T19:14:06.699Z,2.90
2023-10-25T19:16:34.699Z,3.10
2023-10-25T19:19:05.178Z,2.60
2023-10-25T19:21:33.450Z,2.90
2023-10-25T19:24:04.346Z,3.40
2023-10-25T19:26:47.464Z,4.30
2023-10-25T19:29:18.290Z,3.50
2023-10-25T19:31:49.154Z,2.50
2023-10-25T19:34:17.346Z,2.40
2023-10-25T19:36:45.832Z,2.50
2023-10-25T19:39:14.623Z,2.50
2023-10-25T19:41:42.796Z,3.80
2023-10-25T19:44:10.884Z,3.00
2023-10-25T19:46:40.475Z,3.80
2023-10-25T19:49:10.867Z,4.60
2023-10-25T19:51:40.977Z,3.30
2023-10-25T19:54:09.310Z,3.90
2023-10-25T19:56:37.746Z,3.10
2023-10-25T19:59:06.581Z,3.30
2023-10-25T20:01:34.882Z,3.10
2023-10-25T20:04:09.602Z,3.70
2023-10-25T20:06:37.817Z,2.70
2023-10-25T20:09:06.046Z,5.70
2023-10-25T20:11:34.469Z,4.60
2023-10-25T20:14:02.649Z,5.20
2023-10-25T20:16:31.438Z,5.50
2023-10-25T20:19:00.924Z,4.80
2023-10-25T20:21:28.986Z,5.20
2023-10-25T20:24:01.708Z,5.10
2023-10-25T20:26:34.787Z,4.70
2023-10-25T20:29:05.112Z,4.50
2023-10-25T20:31:33.567Z,5.10
2023-10-25T20:34:02.121Z,5.10
2023-10-25T20:36:31.040Z,5.60
2023-10-25T20:38:59.930Z,5.80
2023-10-25T20:41:28.331Z,5.80
2023-10-25T20:43:56.771Z,4.50
2023-10-25T20:46:25.249Z,4.70
2023-10-25T20:48:54.308Z,3.80
2023-10-25T20:51:24.440Z,4.10
2023-10-25T20:53:53.429Z,3.70
2023-10-25T20:56:21.697Z,3.90
2023-10-25T20:58:49.826Z,3.30
2023-10-25T21:01:18.229Z,3.10
2023-10-25T21:03:47.477Z,3.50
2023-10-25T21:06:15.904Z,3.80
2023-10-25T21:08:44.167Z,3.40
2023-10-25T21:11:12.746Z,4.40
2023-10-25T21:13:40.991Z,3.60
2023-10-25T21:16:17.869Z,3.90
2023-10-25T21:18:45.964Z,3.30
2023-10-25T21:21:14.156Z,3.40
2023-10-25T21:23:42.539Z,2.90
2023-10-25T21:26:12.968Z,3.80
2023-10-25T21:28:41.931Z,3.80
2023-10-25T21:31:11.075Z,3.50
2023-10-25T21:33:39.269Z,4.00
2023-10-25T21:36:10.042Z,3.80
2023-10-25T21:38:39.449Z,3.60
2023-10-25T21:41:13.495Z,4.10
2023-10-25T21:43:43.752Z,4.10
2023-10-25T21:46:12.821Z,3.90
2023-10-25T21:48:41.821Z,3.70
2023-10-25T21:51:10.194Z,3.50
2023-10-25T21:53:39.557Z,3.90
2023-10-25T21:56:22.846Z,3.40
2023-10-25T22:01:48.835Z,4.40
2023-10-25T22:04:18.851Z,4.10
2023-10-25T22:06:49.615Z,4.20
2023-10-25T22:09:21.799Z,5.10
2023-10-25T22:11:51.281Z,4.50
2023-10-25T22:14:21.068Z,4.40
2023-10-25T22:16:49.015Z,3.30
2023-10-25T22:19:17.115Z,3.70
2023-10-25T22:21:45.112Z,3.50
2023-10-25T22:24:16.355Z,3.30
2023-10-25T22:26:45.036Z,3.10
2023-10-25T22:29:17.389Z,3.60
2023-10-25T22:31:46.530Z,3.40
2023-10-25T22:34:19.800Z,3.50
2023-10-25T22:36:49.359Z,4.00
2023-10-25T22:39:18.786Z,4.50
2023-10-25T22:41:46.996Z,4.20
2023-10-25T22:44:15.459Z,4.80
2023-10-25T22:46:43.497Z,5.50
2023-10-25T22:49:11.525Z,4.90
2023-10-25T22:51:39.716Z,4.80
2023-10-25T22:54:08.041Z,4.10
2023-10-25T22:56:37.621Z,3.20
2023-10-25T22:59:06.492Z,3.90
2023-10-25T23:01:34.467Z,3.70
2023-10-25T23:04:02.587Z,3.40
2023-10-25T23:06:34.106Z,3.50
2023-10-25T23:09:02.824Z,3.20
2023-10-25T23:11:31.070Z,3.20
2023-10-25T23:13:59.181Z,3.00
2023-10-25T23:16:27.194Z,4.10
2023-10-25T23:18:59.181Z,4.00
2023-10-25T23:21:27.537Z,4.20
2023-10-25T23:23:55.629Z,3.80
2023-10-25T23:26:23.885Z,4.30
2023-10-25T23:28:52.170Z,4.00
2023-10-25T23:31:20.135Z,4.40
2023-10-25T23:33:48.233Z,4.90
2023-10-25T23:36:16.405Z,5.30
2023-10-25T23:38:44.702Z,4.70
2023-10-25T23:41:12.777Z,4.50
2023-10-25T23:43:40.905Z,5.30
2023-10-25T23:46:08.992Z,4.70
2023-10-25T23:48:37.255Z,4.80
2023-10-25T23:51:05.396Z,3.70
2023-10-25T23:53:33.358Z,4.60
2023-10-25T23:56:36.271Z,3.80
2023-10-25T23:58:49.477Z,4.00
